Marine, Minnesota
Current Conditions -  °F | °C
As of 7:15 PM on Monday 20 Oct 2014 (Local Time) from KRNH Reporting Station
Clear Clear  
Wind Chill: 47°   Ceiling: Unl
Heat Index: 49°   Visibility: 10mi
Dew Point: 39°   Wind: 6mph
Humidity: 69%   Direction: 20°NNE
Pressure: 30.05"   Gusts: NA
Location:  45.1574°N, 92.7623°W
Report Text: KRNH 210015Z AUTO 02005KT 10SM CLR 10/04 A3005 RMK AO2 T00950040
Loading
Personal Weather Stations






























Interactive Weather Map
Tropical Storm Tracking
New forecast layout! Learn more

10-Day Weather Forecast

Advertisements
Track Severe Weather on mobile